sensor_id;sensor_type;location;lat;lon;timestamp;pressure;altitude;pressure_sealevel;temperature;humidity
32083;BME280;18597;48.328;7.932;2023-04-24T00:00:56;98545.69;;;11.06;100.00
32083;BME280;18597;48.328;7.932;2023-04-24T00:03:23;98533.13;;;10.98;100.00
32083;BME280;18597;48.328;7.932;2023-04-24T00:05:49;98532.97;;;11.00;100.00
32083;BME280;18597;48.328;7.932;2023-04-24T00:08:17;98547.53;;;11.05;100.00
32083;BME280;18597;48.328;7.932;2023-04-24T00:10:43;98546.84;;;11.03;100.00
32083;BME280;18597;48.328;7.932;2023-04-24T00:13:09;98546.66;;;10.97;100.00
32083;BME280;18597;48.328;7.932;2023-04-24T00:15:35;98553.38;;;11.09;100.00
32083;BME280;18597;48.328;7.932;2023-04-24T00:18:01;98553.19;;;11.10;100.00
32083;BME280;18597;48.328;7.932;2023-04-24T00:20:27;98555.75;;;11.12;100.00
32083;BME280;18597;48.328;7.932;2023-04-24T00:22:58;98555.75;;;11.12;100.00
32083;BME280;18597;48.328;7.932;2023-04-24T00:25:23;98562.13;;;11.19;100.00
32083;BME280;18597;48.328;7.932;2023-04-24T00:27:49;98557.75;;;11.18;100.00
32083;BME280;18597;48.328;7.932;2023-04-24T00:30:15;98555.94;;;11.19;100.00
32083;BME280;18597;48.328;7.932;2023-04-24T00:32:41;98555.03;;;11.10;100.00
32083;BME280;18597;48.328;7.932;2023-04-24T00:35:07;98557.06;;;11.16;100.00
32083;BME280;18597;48.328;7.932;2023-04-24T00:37:33;98555.84;;;11.02;100.00
32083;BME280;18597;48.328;7.932;2023-04-24T00:39:59;98545.09;;;11.20;100.00
32083;BME280;18597;48.328;7.932;2023-04-24T00:42:25;98547.13;;;11.26;100.00
32083;BME280;18597;48.328;7.932;2023-04-24T00:44:51;98550.13;;;11.31;100.00
32083;BME280;18597;48.328;7.932;2023-04-24T00:47:19;98552.25;;;11.20;100.00
32083;BME280;18597;48.328;7.932;2023-04-24T00:49:45;98551.72;;;11.16;100.00
32083;BME280;18597;48.328;7.932;2023-04-24T00:52:11;98554.94;;;11.20;100.00
32083;BME280;18597;48.328;7.932;2023-04-24T00:54:37;98553.28;;;11.19;100.00
32083;BME280;18597;48.328;7.932;2023-04-24T00:57:04;98546.97;;;11.36;100.00
32083;BME280;18597;48.328;7.932;2023-04-24T00:59:30;98549.13;;;11.32;100.00
32083;BME280;18597;48.328;7.932;2023-04-24T01:01:58;98547.63;;;11.30;100.00
32083;BME280;18597;48.328;7.932;2023-04-24T01:04:24;98551.78;;;11.32;100.00
32083;BME280;18597;48.328;7.932;2023-04-24T01:06:50;98548.81;;;11.35;100.00
32083;BME280;18597;48.328;7.932;2023-04-24T01:09:18;98536.78;;;11.48;100.00
32083;BME280;18597;48.328;7.932;2023-04-24T01:11:44;98539.78;;;11.36;100.00
32083;BME280;18597;48.328;7.932;2023-04-24T01:14:10;98545.78;;;11.30;100.00
32083;BME280;18597;48.328;7.932;2023-04-24T01:16:36;98546.09;;;11.27;100.00
32083;BME280;18597;48.328;7.932;2023-04-24T01:19:05;98550.47;;;11.28;100.00
32083;BME280;18597;48.328;7.932;2023-04-24T01:21:36;98550.94;;;11.24;100.00
32083;BME280;18597;48.328;7.932;2023-04-24T01:24:04;98544.34;;;11.10;100.00
32083;BME280;18597;48.328;7.932;2023-04-24T01:26:30;98539.84;;;11.10;100.00
32083;BME280;18597;48.328;7.932;2023-04-24T01:28:56;98533.97;;;10.99;100.00
32083;BME280;18597;48.328;7.932;2023-04-24T01:31:23;98538.75;;;10.87;100.00
32083;BME280;18597;48.328;7.932;2023-04-24T01:33:50;98536.97;;;10.96;100.00
32083;BME280;18597;48.328;7.932;2023-04-24T01:36:16;98542.63;;;10.93;100.00
32083;BME280;18597;48.328;7.932;2023-04-24T01:38:44;98539.81;;;11.02;100.00
32083;BME280;18597;48.328;7.932;2023-04-24T01:41:10;98537.63;;;10.98;100.00
32083;BME280;18597;48.328;7.932;2023-04-24T01:43:36;98527.03;;;10.88;100.00
32083;BME280;18597;48.328;7.932;2023-04-24T01:46:02;98529.41;;;10.91;100.00
32083;BME280;18597;48.328;7.932;2023-04-24T01:48:28;98531.25;;;10.91;100.00
32083;BME280;18597;48.328;7.932;2023-04-24T01:50:56;98535.59;;;10.92;100.00
32083;BME280;18597;48.328;7.932;2023-04-24T01:53:22;98534.31;;;11.04;100.00
32083;BME280;18597;48.328;7.932;2023-04-24T01:55:48;98530.25;;;10.92;100.00
32083;BME280;18597;48.328;7.932;2023-04-24T01:58:14;98534.63;;;11.01;100.00
32083;BME280;18597;48.328;7.932;2023-04-24T02:00:40;98534.28;;;10.96;100.00
32083;BME280;18597;48.328;7.932;2023-04-24T02:03:06;98532.47;;;10.96;100.00
32083;BME280;18597;48.328;7.932;2023-04-24T02:05:32;98540.66;;;11.03;100.00
32083;BME280;18597;48.328;7.932;2023-04-24T02:07:58;98547.34;;;11.07;100.00
32083;BME280;18597;48.328;7.932;2023-04-24T02:10:24;98545.81;;;10.96;100.00
32083;BME280;18597;48.328;7.932;2023-04-24T02:12:50;98542.66;;;11.01;100.00
32083;BME280;18597;48.328;7.932;2023-04-24T02:15:16;98546.66;;;10.97;100.00
32083;BME280;18597;48.328;7.932;2023-04-24T02:17:43;98557.16;;;10.90;100.00
32083;BME280;18597;48.328;7.932;2023-04-24T02:20:09;98538.69;;;10.79;100.00
32083;BME280;18597;48.328;7.932;2023-04-24T02:22:35;98546.88;;;10.77;100.00
32083;BME280;18597;48.328;7.932;2023-04-24T02:25:01;98542.66;;;10.67;100.00
32083;BME280;18597;48.328;7.932;2023-04-24T02:27:27;98538.91;;;10.51;100.00
32083;BME280;18597;48.328;7.932;2023-04-24T02:29:53;98540.50;;;10.44;100.00
32083;BME280;18597;48.328;7.932;2023-04-24T02:32:19;98536.25;;;10.34;100.00
32083;BME280;18597;48.328;7.932;2023-04-24T02:34:44;98552.13;;;10.61;100.00
32083;BME280;18597;48.328;7.932;2023-04-24T02:37:10;98553.38;;;10.49;100.00
32083;BME280;18597;48.328;7.932;2023-04-24T02:39:36;98551.41;;;10.51;100.00
32083;BME280;18597;48.328;7.932;2023-04-24T02:42:02;98559.56;;;10.49;100.00
32083;BME280;18597;48.328;7.932;2023-04-24T02:44:28;98553.09;;;10.52;100.00
32083;BME280;18597;48.328;7.932;2023-04-24T02:46:54;98554.75;;;10.53;100.00
32083;BME280;18597;48.328;7.932;2023-04-24T02:49:20;98561.75;;;10.54;100.00
32083;BME280;18597;48.328;7.932;2023-04-24T02:51:45;98560.66;;;10.65;100.00
32083;BME280;18597;48.328;7.932;2023-04-24T02:54:11;98557.81;;;10.58;100.00
32083;BME280;18597;48.328;7.932;2023-04-24T02:56:37;98548.13;;;10.65;100.00
32083;BME280;18597;48.328;7.932;2023-04-24T02:59:03;98550.81;;;10.65;100.00
32083;BME280;18597;48.328;7.932;2023-04-24T03:01:29;98556.63;;;10.61;100.00
32083;BME280;18597;48.328;7.932;2023-04-24T03:03:55;98568.16;;;10.61;100.00
32083;BME280;18597;48.328;7.932;2023-04-24T03:06:21;98578.84;;;10.61;100.00
32083;BME280;18597;48.328;7.932;2023-04-24T03:08:47;98583.13;;;10.54;100.00
32083;BME280;18597;48.328;7.932;2023-04-24T03:11:12;98601.88;;;10.62;100.00
32083;BME280;18597;48.328;7.932;2023-04-24T03:13:38;98604.81;;;10.51;100.00
32083;BME280;18597;48.328;7.932;2023-04-24T03:16:04;98599.59;;;10.49;100.00
32083;BME280;18597;48.328;7.932;2023-04-24T03:18:31;98590.19;;;10.37;100.00
32083;BME280;18597;48.328;7.932;2023-04-24T03:20:57;98595.75;;;10.26;100.00
32083;BME280;18597;48.328;7.932;2023-04-24T03:23:22;98584.91;;;10.27;100.00
32083;BME280;18597;48.328;7.932;2023-04-24T03:25:48;98586.25;;;10.23;100.00
32083;BME280;18597;48.328;7.932;2023-04-24T03:28:14;98599.25;;;10.26;100.00
32083;BME280;18597;48.328;7.932;2023-04-24T03:30:40;98599.16;;;10.18;100.00
32083;BME280;18597;48.328;7.932;2023-04-24T03:33:06;98602.78;;;10.27;100.00
32083;BME280;18597;48.328;7.932;2023-04-24T03:35:32;98606.59;;;10.24;100.00
32083;BME280;18597;48.328;7.932;2023-04-24T03:37:57;98605.50;;;10.17;100.00
32083;BME280;18597;48.328;7.932;2023-04-24T03:40:23;98592.63;;;10.13;100.00
32083;BME280;18597;48.328;7.932;2023-04-24T03:42:49;98601.53;;;10.04;100.00
32083;BME280;18597;48.328;7.932;2023-04-24T03:45:15;98601.53;;;10.04;100.00
32083;BME280;18597;48.328;7.932;2023-04-24T03:47:41;98607.03;;;10.02;100.00
32083;BME280;18597;48.328;7.932;2023-04-24T03:50:07;98614.19;;;10.01;100.00
32083;BME280;18597;48.328;7.932;2023-04-24T03:52:33;98617.63;;;9.94;100.00
32083;BME280;18597;48.328;7.932;2023-04-24T03:54:58;98614.72;;;9.87;100.00
32083;BME280;18597;48.328;7.932;2023-04-24T03:57:24;98611.81;;;9.81;100.00
32083;BME280;18597;48.328;7.932;2023-04-24T03:59:50;98621.22;;;9.85;100.00
32083;BME280;18597;48.328;7.932;2023-04-24T04:02:17;98622.88;;;9.86;100.00
32083;BME280;18597;48.328;7.932;2023-04-24T04:04:42;98621.97;;;9.77;100.00
32083;BME280;18597;48.328;7.932;2023-04-24T04:07:08;98626.50;;;9.67;100.00
32083;BME280;18597;48.328;7.932;2023-04-24T04:09:34;98635.06;;;9.70;100.00
32083;BME280;18597;48.328;7.932;2023-04-24T04:12:00;98635.50;;;9.66;100.00
32083;BME280;18597;48.328;7.932;2023-04-24T04:14:27;98647.38;;;9.54;100.00
32083;BME280;18597;48.328;7.932;2023-04-24T04:16:53;98650.06;;;9.44;100.00
32083;BME280;18597;48.328;7.932;2023-04-24T04:19:18;98656.13;;;9.36;100.00
32083;BME280;18597;48.328;7.932;2023-04-24T04:21:44;98663.19;;;9.28;100.00
32083;BME280;18597;48.328;7.932;2023-04-24T04:24:11;98664.75;;;9.21;100.00
32083;BME280;18597;48.328;7.932;2023-04-24T04:26:38;98680.09;;;9.09;100.00
32083;BME280;18597;48.328;7.932;2023-04-24T04:29:04;98669.25;;;9.20;100.00
32083;BME280;18597;48.328;7.932;2023-04-24T04:31:30;98678.38;;;9.17;100.00
32083;BME280;18597;48.328;7.932;2023-04-24T04:33:56;98686.94;;;9.11;100.00
32083;BME280;18597;48.328;7.932;2023-04-24T04:36:22;98689.47;;;9.23;100.00
32083;BME280;18597;48.328;7.932;2023-04-24T04:38:49;98690.19;;;9.15;100.00
32083;BME280;18597;48.328;7.932;2023-04-24T04:41:15;98692.28;;;9.11;100.00
32083;BME280;18597;48.328;7.932;2023-04-24T04:43:42;98694.78;;;9.23;100.00
32083;BME280;18597;48.328;7.932;2023-04-24T04:46:08;98706.66;;;9.38;100.00
32083;BME280;18597;48.328;7.932;2023-04-24T04:48:36;98698.34;;;9.41;100.00
32083;BME280;18597;48.328;7.932;2023-04-24T04:51:02;98707.81;;;9.63;100.00
32083;BME280;18597;48.328;7.932;2023-04-24T04:53:28;98709.16;;;9.67;100.00
32083;BME280;18597;48.328;7.932;2023-04-24T04:55:53;98707.00;;;9.80;100.00
32083;BME280;18597;48.328;7.932;2023-04-24T04:58:19;98715.81;;;9.90;100.00
32083;BME280;18597;48.328;7.932;2023-04-24T05:00:45;98710.84;;;9.95;100.00
32083;BME280;18597;48.328;7.932;2023-04-24T05:03:11;98721.16;;;10.08;100.00
32083;BME280;18597;48.328;7.932;2023-04-24T05:05:37;98717.34;;;9.93;100.00
32083;BME280;18597;48.328;7.932;2023-04-24T05:08:07;98720.41;;;9.98;100.00
32083;BME280;18597;48.328;7.932;2023-04-24T05:10:34;98727.16;;;9.92;100.00
32083;BME280;18597;48.328;7.932;2023-04-24T05:13:00;98729.50;;;10.05;100.00
32083;BME280;18597;48.328;7.932;2023-04-24T05:15:26;98735.34;;;10.09;100.00
32083;BME280;18597;48.328;7.932;2023-04-24T05:17:52;98733.22;;;10.12;100.00
32083;BME280;18597;48.328;7.932;2023-04-24T05:20:18;98733.72;;;10.25;100.00
32083;BME280;18597;48.328;7.932;2023-04-24T05:22:43;98730.47;;;10.32;100.00
32083;BME280;18597;48.328;7.932;2023-04-24T05:25:09;98730.94;;;10.17;100.00
32083;BME280;18597;48.328;7.932;2023-04-24T05:27:35;98736.75;;;10.13;100.00
32083;BME280;18597;48.328;7.932;2023-04-24T05:30:01;98736.88;;;10.11;100.00
32083;BME280;18597;48.328;7.932;2023-04-24T05:32:27;98743.50;;;10.07;100.00
32083;BME280;18597;48.328;7.932;2023-04-24T05:34:53;98739.44;;;10.03;100.00
32083;BME280;18597;48.328;7.932;2023-04-24T05:37:18;98752.28;;;10.17;100.00
32083;BME280;18597;48.328;7.932;2023-04-24T05:39:44;98746.78;;;10.01;100.00
32083;BME280;18597;48.328;7.932;2023-04-24T05:42:10;98754.09;;;9.99;100.00
32083;BME280;18597;48.328;7.932;2023-04-24T05:44:36;98759.88;;;9.94;100.00
32083;BME280;18597;48.328;7.932;2023-04-24T05:47:02;98774.34;;;9.92;100.00
32083;BME280;18597;48.328;7.932;2023-04-24T05:49:28;98786.28;;;9.97;100.00
32083;BME280;18597;48.328;7.932;2023-04-24T05:51:54;98796.78;;;9.99;100.00
32083;BME280;18597;48.328;7.932;2023-04-24T05:54:20;98796.28;;;9.86;100.00
32083;BME280;18597;48.328;7.932;2023-04-24T05:56:46;98801.09;;;9.72;100.00
32083;BME280;18597;48.328;7.932;2023-04-24T05:59:12;98802.19;;;9.80;100.00
32083;BME280;18597;48.328;7.932;2023-04-24T06:01:37;98797.53;;;9.82;100.00
32083;BME280;18597;48.328;7.932;2023-04-24T06:04:04;98793.56;;;9.68;100.00
32083;BME280;18597;48.328;7.932;2023-04-24T06:06:30;98797.16;;;9.77;100.00
32083;BME280;18597;48.328;7.932;2023-04-24T06:08:56;98800.38;;;9.80;100.00
32083;BME280;18597;48.328;7.932;2023-04-24T06:11:24;98806.13;;;9.85;100.00
32083;BME280;18597;48.328;7.932;2023-04-24T06:13:50;98806.16;;;9.76;100.00
32083;BME280;18597;48.328;7.932;2023-04-24T06:16:17;98812.53;;;9.92;100.00
32083;BME280;18597;48.328;7.932;2023-04-24T06:18:43;98813.22;;;10.32;100.00
32083;BME280;18597;48.328;7.932;2023-04-24T06:21:09;98820.66;;;10.55;100.00
32083;BME280;18597;48.328;7.932;2023-04-24T06:23:34;98825.78;;;10.67;100.00
32083;BME280;18597;48.328;7.932;2023-04-24T06:26:00;98830.81;;;10.70;100.00
32083;BME280;18597;48.328;7.932;2023-04-24T06:28:26;98837.63;;;10.82;100.00
32083;BME280;18597;48.328;7.932;2023-04-24T06:30:52;98833.13;;;10.82;100.00
32083;BME280;18597;48.328;7.932;2023-04-24T06:33:18;98838.31;;;10.66;100.00
32083;BME280;18597;48.328;7.932;2023-04-24T06:35:43;98845.56;;;11.27;100.00
32083;BME280;18597;48.328;7.932;2023-04-24T06:38:09;98841.09;;;14.58;100.00
32083;BME280;18597;48.328;7.932;2023-04-24T06:40:35;98842.56;;;17.58;100.00
32083;BME280;18597;48.328;7.932;2023-04-24T06:43:01;98834.09;;;21.08;100.00
32083;BME280;18597;48.328;7.932;2023-04-24T06:45:29;98828.38;;;23.91;58.75
32083;BME280;18597;48.328;7.932;2023-04-24T06:47:55;98828.91;;;26.16;48.08
32083;BME280;18597;48.328;7.932;2023-04-24T06:50:22;98829.41;;;28.71;40.50
32083;BME280;18597;48.328;7.932;2023-04-24T06:52:48;98826.72;;;30.80;34.31
32083;BME280;18597;48.328;7.932;2023-04-24T06:55:13;98816.22;;;32.05;30.73
32083;BME280;18597;48.328;7.932;2023-04-24T06:57:42;98814.34;;;33.53;28.72
32083;BME280;18597;48.328;7.932;2023-04-24T07:00:08;98817.53;;;33.79;26.63
32083;BME280;18597;48.328;7.932;2023-04-24T07:02:35;98824.78;;;32.80;26.40
32083;BME280;18597;48.328;7.932;2023-04-24T07:05:01;98821.13;;;32.85;26.14
32083;BME280;18597;48.328;7.932;2023-04-24T07:07:27;98820.53;;;29.37;30.19
32083;BME280;18597;48.328;7.932;2023-04-24T07:09:53;98826.31;;;28.05;30.49
32083;BME280;18597;48.328;7.932;2023-04-24T07:12:19;98823.09;;;29.64;29.96
32083;BME280;18597;48.328;7.932;2023-04-24T07:14:47;98826.63;;;29.90;28.43
32083;BME280;18597;48.328;7.932;2023-04-24T07:17:13;98832.72;;;32.39;27.40
32083;BME280;18597;48.328;7.932;2023-04-24T07:19:40;98831.66;;;34.97;24.06
32083;BME280;18597;48.328;7.932;2023-04-24T07:22:06;98827.78;;;37.12;22.27
32083;BME280;18597;48.328;7.932;2023-04-24T07:24:32;98823.72;;;38.43;20.20
32083;BME280;18597;48.328;7.932;2023-04-24T07:26:58;98821.25;;;37.43;20.11
32083;BME280;18597;48.328;7.932;2023-04-24T07:29:26;98822.97;;;31.89;23.39
32083;BME280;18597;48.328;7.932;2023-04-24T07:31:52;98833.78;;;28.57;28.66
32083;BME280;18597;48.328;7.932;2023-04-24T07:34:19;98835.38;;;25.14;32.54
32083;BME280;18597;48.328;7.932;2023-04-24T07:36:46;98840.31;;;22.77;36.94
32083;BME280;18597;48.328;7.932;2023-04-24T07:39:11;98847.38;;;20.85;40.35
32083;BME280;18597;48.328;7.932;2023-04-24T07:41:38;98854.28;;;19.30;44.20
32083;BME280;18597;48.328;7.932;2023-04-24T07:44:03;98864.63;;;17.89;45.96
32083;BME280;18597;48.328;7.932;2023-04-24T07:46:30;98864.28;;;16.85;48.12
32083;BME280;18597;48.328;7.932;2023-04-24T07:48:56;98872.09;;;15.92;50.60
32083;BME280;18597;48.328;7.932;2023-04-24T07:51:22;98867.66;;;15.15;52.69
32083;BME280;18597;48.328;7.932;2023-04-24T07:53:47;98880.66;;;14.81;56.18
32083;BME280;18597;48.328;7.932;2023-04-24T07:56:13;98880.59;;;14.58;59.26
32083;BME280;18597;48.328;7.932;2023-04-24T07:58:39;98887.53;;;14.44;60.86
32083;BME280;18597;48.328;7.932;2023-04-24T08:01:05;98904.91;;;14.17;60.23
32083;BME280;18597;48.328;7.932;2023-04-24T08:03:31;98901.28;;;13.61;62.68
32083;BME280;18597;48.328;7.932;2023-04-24T08:05:57;98909.31;;;13.45;67.07
32083;BME280;18597;48.328;7.932;2023-04-24T08:08:23;98909.50;;;13.43;68.38
32083;BME280;18597;48.328;7.932;2023-04-24T08:10:49;98914.88;;;13.76;64.46
32083;BME280;18597;48.328;7.932;2023-04-24T08:13:15;98908.41;;;15.81;56.29
32083;BME280;18597;48.328;7.932;2023-04-24T08:15:41;98910.16;;;20.37;42.92
32083;BME280;18597;48.328;7.932;2023-04-24T08:18:07;98915.94;;;21.18;37.50
32083;BME280;18597;48.328;7.932;2023-04-24T08:20:33;98924.78;;;20.22;40.15
32083;BME280;18597;48.328;7.932;2023-04-24T08:22:59;98918.03;;;18.43;41.22
32083;BME280;18597;48.328;7.932;2023-04-24T08:25:25;98925.69;;;17.41;44.33
32083;BME280;18597;48.328;7.932;2023-04-24T08:27:51;98943.22;;;16.94;47.15
32083;BME280;18597;48.328;7.932;2023-04-24T08:30:17;98948.34;;;16.59;47.39
32083;BME280;18597;48.328;7.932;2023-04-24T08:32:43;98949.97;;;17.19;46.96
32083;BME280;18597;48.328;7.932;2023-04-24T08:35:09;98943.91;;;17.96;45.06
32083;BME280;18597;48.328;7.932;2023-04-24T08:37:35;98940.78;;;18.90;43.04
32083;BME280;18597;48.328;7.932;2023-04-24T08:40:12;98940.19;;;19.62;42.81
32083;BME280;18597;48.328;7.932;2023-04-24T08:42:41;98944.94;;;19.47;42.15
32083;BME280;18597;48.328;7.932;2023-04-24T08:45:09;98947.44;;;18.88;39.69
32083;BME280;18597;48.328;7.932;2023-04-24T08:47:35;98953.59;;;18.68;42.28
32083;BME280;18597;48.328;7.932;2023-04-24T08:50:03;98953.97;;;19.06;41.38
32083;BME280;18597;48.328;7.932;2023-04-24T08:52:33;98952.50;;;19.10;39.73
32083;BME280;18597;48.328;7.932;2023-04-24T08:55:00;98953.94;;;18.65;38.25
32083;BME280;18597;48.328;7.932;2023-04-24T08:57:27;98961.53;;;19.24;39.11
32083;BME280;18597;48.328;7.932;2023-04-24T08:59:54;98972.03;;;18.93;36.37
32083;BME280;18597;48.328;7.932;2023-04-24T09:02:21;98962.22;;;19.46;37.10
32083;BME280;18597;48.328;7.932;2023-04-24T09:04:47;98962.47;;;19.03;36.47
32083;BME280;18597;48.328;7.932;2023-04-24T09:07:16;98972.00;;;18.86;37.85
32083;BME280;18597;48.328;7.932;2023-04-24T09:09:44;98976.97;;;18.26;38.70
32083;BME280;18597;48.328;7.932;2023-04-24T09:12:10;98979.50;;;17.42;39.85
32083;BME280;18597;48.328;7.932;2023-04-24T09:14:37;98982.06;;;16.26;40.60
32083;BME280;18597;48.328;7.932;2023-04-24T09:17:08;98990.00;;;15.59;42.68
32083;BME280;18597;48.328;7.932;2023-04-24T09:19:34;99000.09;;;15.25;45.54
32083;BME280;18597;48.328;7.932;2023-04-24T09:21:59;99001.78;;;14.87;45.77
32083;BME280;18597;48.328;7.932;2023-04-24T09:24:30;99004.13;;;14.51;47.05
32083;BME280;18597;48.328;7.932;2023-04-24T09:26:58;99009.16;;;14.13;48.88
32083;BME280;18597;48.328;7.932;2023-04-24T09:29:24;99017.91;;;14.07;47.82
32083;BME280;18597;48.328;7.932;2023-04-24T09:31:50;99019.91;;;14.13;48.57
32083;BME280;18597;48.328;7.932;2023-04-24T09:34:22;99014.84;;;14.19;48.33
32083;BME280;18597;48.328;7.932;2023-04-24T09:36:49;99007.63;;;14.27;47.23
32083;BME280;18597;48.328;7.932;2023-04-24T09:39:16;99015.19;;;14.24;47.51
32083;BME280;18597;48.328;7.932;2023-04-24T09:41:51;99009.63;;;14.41;47.64
32083;BME280;18597;48.328;7.932;2023-04-24T09:44:22;99009.78;;;14.64;47.48
32083;BME280;18597;48.328;7.932;2023-04-24T09:46:53;99010.75;;;14.71;47.05
32083;BME280;18597;48.328;7.932;2023-04-24T09:49:29;99019.81;;;14.79;48.08
32083;BME280;18597;48.328;7.932;2023-04-24T09:52:09;99023.38;;;14.71;47.33
32083;BME280;18597;48.328;7.932;2023-04-24T09:54:36;99026.88;;;14.71;47.44
32083;BME280;18597;48.328;7.932;2023-04-24T09:57:03;99024.72;;;14.75;47.86
32083;BME280;18597;48.328;7.932;2023-04-24T09:59:30;99028.94;;;14.61;46.93
32083;BME280;18597;48.328;7.932;2023-04-24T10:01:56;99018.94;;;14.86;46.13
32083;BME280;18597;48.328;7.932;2023-04-24T10:04:26;99029.00;;;14.92;47.06
32083;BME280;18597;48.328;7.932;2023-04-24T10:06:55;99034.03;;;14.95;46.95
32083;BME280;18597;48.328;7.932;2023-04-24T10:09:25;99028.16;;;15.00;47.26
32083;BME280;18597;48.328;7.932;2023-04-24T10:11:53;99041.13;;;14.88;46.88
32083;BME280;18597;48.328;7.932;2023-04-24T10:14:23;99033.63;;;14.67;47.07
32083;BME280;18597;48.328;7.932;2023-04-24T10:16:50;99032.66;;;14.52;47.41
32083;BME280;18597;48.328;7.932;2023-04-24T10:19:18;99041.56;;;14.36;48.57
32083;BME280;18597;48.328;7.932;2023-04-24T10:21:45;99044.09;;;14.22;49.60
32083;BME280;18597;48.328;7.932;2023-04-24T10:24:17;99058.69;;;14.03;51.98
32083;BME280;18597;48.328;7.932;2023-04-24T10:26:45;99048.91;;;13.61;53.73
32083;BME280;18597;48.328;7.932;2023-04-24T10:29:13;99050.38;;;13.47;53.56
32083;BME280;18597;48.328;7.932;2023-04-24T10:31:40;99054.50;;;13.25;53.91
32083;BME280;18597;48.328;7.932;2023-04-24T10:34:08;99061.28;;;13.12;56.14
32083;BME280;18597;48.328;7.932;2023-04-24T10:36:38;99066.19;;;12.90;57.73
32083;BME280;18597;48.328;7.932;2023-04-24T10:39:11;99079.84;;;12.71;61.11
32083;BME280;18597;48.328;7.932;2023-04-24T10:41:38;99074.06;;;12.58;65.11
32083;BME280;18597;48.328;7.932;2023-04-24T10:44:07;99075.22;;;12.55;66.75
32083;BME280;18597;48.328;7.932;2023-04-24T10:46:34;99084.78;;;12.58;66.42
32083;BME280;18597;48.328;7.932;2023-04-24T10:49:04;99078.88;;;12.54;66.64
32083;BME280;18597;48.328;7.932;2023-04-24T10:52:01;99077.13;;;12.63;65.95
32083;BME280;18597;48.328;7.932;2023-04-24T10:57:28;99071.47;;;13.00;62.36
32083;BME280;18597;48.328;7.932;2023-04-24T11:00:20;99083.94;;;13.17;62.74
32083;BME280;18597;48.328;7.932;2023-04-24T11:02:47;99083.88;;;13.35;62.69
32083;BME280;18597;48.328;7.932;2023-04-24T11:05:16;99076.69;;;13.52;62.87
32083;BME280;18597;48.328;7.932;2023-04-24T11:08:13;99078.75;;;13.66;59.35
32083;BME280;18597;48.328;7.932;2023-04-24T11:10:46;99081.34;;;14.00;57.40
32083;BME280;18597;48.328;7.932;2023-04-24T11:16:53;99092.38;;;14.87;56.07
32083;BME280;18597;48.328;7.932;2023-04-24T11:19:24;99088.66;;;15.04;54.95
32083;BME280;18597;48.328;7.932;2023-04-24T11:22:14;99096.56;;;15.06;54.16
32083;BME280;18597;48.328;7.932;2023-04-24T11:27:23;99093.09;;;14.89;53.75
32083;BME280;18597;48.328;7.932;2023-04-24T11:30:00;99101.47;;;14.86;55.45
32083;BME280;18597;48.328;7.932;2023-04-24T11:35:16;99112.25;;;14.69;57.42
32083;BME280;18597;48.328;7.932;2023-04-24T11:37:45;99104.56;;;14.66;58.54
32083;BME280;18597;48.328;7.932;2023-04-24T11:40:14;99105.88;;;14.70;57.33
32083;BME280;18597;48.328;7.932;2023-04-24T11:42:44;99107.38;;;14.73;58.11
32083;BME280;18597;48.328;7.932;2023-04-24T11:45:13;99101.47;;;14.86;55.31
32083;BME280;18597;48.328;7.932;2023-04-24T11:47:40;99097.75;;;14.95;50.99
32083;BME280;18597;48.328;7.932;2023-04-24T11:50:12;99091.34;;;15.04;51.08
32083;BME280;18597;48.328;7.932;2023-04-24T11:52:42;99103.22;;;15.18;50.55
32083;BME280;18597;48.328;7.932;2023-04-24T11:55:24;99092.97;;;15.21;49.51
32083;BME280;18597;48.328;7.932;2023-04-24T11:57:56;99088.44;;;15.61;48.58
32083;BME280;18597;48.328;7.932;2023-04-24T12:00:28;99088.31;;;16.08;46.49
32083;BME280;18597;48.328;7.932;2023-04-24T12:03:11;99079.72;;;16.51;46.37
32083;BME280;18597;48.328;7.932;2023-04-24T12:05:38;99079.06;;;16.86;44.90
32083;BME280;18597;48.328;7.932;2023-04-24T12:08:04;99076.38;;;16.86;43.64
32083;BME280;18597;48.328;7.932;2023-04-24T12:10:32;99076.53;;;17.00;44.34
32083;BME280;18597;48.328;7.932;2023-04-24T12:12:59;99073.38;;;17.11;43.50
32083;BME280;18597;48.328;7.932;2023-04-24T12:15:27;99071.31;;;17.13;42.68
32083;BME280;18597;48.328;7.932;2023-04-24T12:17:54;99071.81;;;17.02;41.51
32083;BME280;18597;48.328;7.932;2023-04-24T12:20:27;99059.50;;;17.14;42.41
32083;BME280;18597;48.328;7.932;2023-04-24T12:22:55;99061.00;;;17.16;41.95
32083;BME280;18597;48.328;7.932;2023-04-24T12:25:28;99071.31;;;17.13;41.87
32083;BME280;18597;48.328;7.932;2023-04-24T12:28:08;99060.81;;;17.03;42.59
32083;BME280;18597;48.328;7.932;2023-04-24T12:30:47;99061.69;;;16.66;41.99
32083;BME280;18597;48.328;7.932;2023-04-24T12:33:19;99049.31;;;16.57;43.07
32083;BME280;18597;48.328;7.932;2023-04-24T12:35:45;99051.44;;;16.61;42.73
32083;BME280;18597;48.328;7.932;2023-04-24T12:38:13;99052.06;;;16.72;42.62
32083;BME280;18597;48.328;7.932;2023-04-24T12:40:40;99054.97;;;16.62;41.35
32083;BME280;18597;48.328;7.932;2023-04-24T12:43:22;99058.13;;;16.51;42.49
32083;BME280;18597;48.328;7.932;2023-04-24T12:45:48;99051.50;;;16.38;43.03
32083;BME280;18597;48.328;7.932;2023-04-24T12:48:14;99052.53;;;16.37;43.58
32083;BME280;18597;48.328;7.932;2023-04-24T12:50:40;99044.94;;;16.41;43.66
32083;BME280;18597;48.328;7.932;2023-04-24T12:53:07;99052.84;;;16.20;44.06
32083;BME280;18597;48.328;7.932;2023-04-24T12:55:34;99060.53;;;15.85;45.32
32083;BME280;18597;48.328;7.932;2023-04-24T12:58:00;99051.72;;;15.60;45.45
32083;BME280;18597;48.328;7.932;2023-04-24T13:00:27;99057.78;;;15.31;47.46
32083;BME280;18597;48.328;7.932;2023-04-24T13:02:53;99059.38;;;15.09;48.44
32083;BME280;18597;48.328;7.932;2023-04-24T13:05:19;99055.56;;;14.95;49.30
32083;BME280;18597;48.328;7.932;2023-04-24T13:07:45;99058.13;;;14.89;49.31
32083;BME280;18597;48.328;7.932;2023-04-24T13:10:11;99059.59;;;14.99;49.45